Time;durP1;ratioP1;P1;durP2;ratioP2;P2;SDS_P1;SDS_P2;PMS_P1;PMS_P2;Temp;Humidity;BMP_temperature;BMP_pressure;BME280_temperature;BME280_humidity;BME280_pressure;Samples;Min_cycle;Max_cycle;Signal;HPM_P1;HPM_P2
2023/09/10 00:00:10;;;;;;;10.63;4.85;;;;;;;12.94;65.63;98095.31;10455004;28;20036;-53
2023/09/10 00:05:09;;;;;;;14.00;4.80;;;;;;;12.81;65.91;98085.81;10454926;28;20057;-53
2023/09/10 00:10:08;;;;;;;12.80;5.35;;;;;;;12.71;66.15;98098.00;10455013;28;20024;-53
2023/09/10 00:15:07;;;;;;;;;;;;;;;12.66;65.99;98091.09;10455129;28;20071;-54
2023/09/10 00:20:07;;;;;;;10.75;5.63;;;;;;;12.62;66.15;98100.66;10454415;28;19911;-53
2023/09/10 00:25:06;;;;;;;10.35;5.07;;;;;;;12.51;66.93;98081.63;10454724;28;20043;-53
2023/09/10 00:30:06;;;;;;;10.52;5.68;;;;;;;12.45;67.08;98081.63;10453864;28;20119;-53
2023/09/10 00:35:05;;;;;;;10.57;6.05;;;;;;;12.45;67.57;98089.44;10453380;28;20046;-53
2023/09/10 00:40:05;;;;;;;10.88;5.97;;;;;;;12.39;68.06;98087.75;10454250;28;20458;-53
2023/09/10 00:45:07;;;;;;;12.77;5.82;;;;;;;11.96;68.19;98016.69;10453472;28;20111;-53
2023/09/10 00:50:09;;;;;;;11.98;6.22;;;;;;;12.26;68.33;98089.47;10453332;28;20858;-53
2023/09/10 00:55:08;;;;;;;11.02;5.90;;;;;;;12.23;68.39;98092.09;10453205;28;20065;-53
2023/09/10 01:00:09;;;;;;;12.88;5.82;;;;;;;12.18;68.52;98087.72;10452664;28;20032;-53
2023/09/10 01:05:08;;;;;;;11.23;5.90;;;;;;;12.14;68.64;98092.09;10452983;28;20063;-53
2023/09/10 01:10:08;;;;;;;14.63;7.22;;;;;;;12.06;68.72;98084.31;10452603;28;20059;-53
2023/09/10 01:15:07;;;;;;;10.80;4.78;;;;;;;12.09;69.69;98091.25;10450481;28;20059;-53
2023/09/10 01:20:33;;;;;;;10.98;5.78;;;;;;;12.01;70.00;98087.78;10450664;28;20024;-53
2023/09/10 01:25:32;;;;;;;14.82;7.45;;;;;;;11.95;70.08;98080.00;10451225;28;20075;-54
2023/09/10 01:30:31;;;;;;;;;;;;;;;11.98;69.98;98095.59;10451011;28;20579;-53
2023/09/10 01:35:51;;;;;;;7.43;4.18;;;;;;;11.99;70.24;98087.75;10449151;28;19939;-54
2023/09/10 01:41:01;;;;;;;8.50;4.35;;;;;;;11.96;70.80;98087.78;10449842;28;20052;-53
2023/09/10 01:46:01;;;;;;;;;;;;;;;11.87;71.46;98093.84;10450024;28;20055;-54
2023/09/10 01:51:00;;;;;;;11.20;3.92;;;;;;;11.78;72.08;98099.06;10449265;28;19963;-53
2023/09/10 01:55:59;;;;;;;8.50;4.45;;;;;;;11.70;71.94;98095.59;10448775;28;20020;-53
2023/09/10 02:00:58;;;;;;;6.60;4.32;;;;;;;11.58;72.49;98095.59;10449208;28;20070;-52
2023/09/10 02:05:58;;;;;;;11.02;4.65;;;;;;;11.49;72.25;98091.25;10450202;28;20030;-53
2023/09/10 02:10:57;;;;;;;6.88;4.25;;;;;;;11.47;72.20;98098.19;10453030;28;20510;-53
2023/09/10 02:15:56;;;;;;;9.32;4.45;;;;;;;11.14;72.82;98060.91;10453721;28;20064;-53
2023/09/10 02:20:55;;;;;;;9.68;4.97;;;;;;;11.02;72.77;98046.16;10453465;28;20059;-53
2023/09/10 02:25:54;;;;;;;12.07;5.93;;;;;;;11.29;73.08;98104.25;10453464;28;20024;-54
2023/09/10 02:30:53;;;;;;;10.60;6.15;;;;;;;11.27;73.37;98107.69;10453664;28;20155;-53
2023/09/10 02:35:52;;;;;;;13.02;5.93;;;;;;;11.20;73.52;98110.28;10453273;28;20088;-53
2023/09/10 02:40:51;;;;;;;12.20;5.35;;;;;;;11.18;73.60;98105.94;10453253;28;20051;-54
2023/09/10 02:45:50;;;;;;;12.68;5.80;;;;;;;11.11;74.68;98107.66;10453848;28;20062;-53
2023/09/10 02:50:49;;;;;;;9.57;5.30;;;;;;;11.04;73.68;98092.94;10454933;28;20119;-53
2023/09/10 02:56:01;;;;;;;12.15;5.57;;;;;;;11.04;74.41;98098.97;10453249;28;20031;-53
2023/09/10 03:01:04;;;;;;;10.65;5.13;;;;;;;11.04;73.98;98100.72;10451518;28;20051;-53
2023/09/10 03:06:13;;;;;;;12.32;4.88;;;;;;;10.99;74.87;98111.09;10452083;28;20058;-53
2023/09/10 03:11:12;;;;;;;11.20;4.80;;;;;;;10.94;75.08;98107.63;10449956;28;20899;-53
2023/09/10 03:16:11;;;;;;;8.55;4.38;;;;;;;10.95;75.17;98118.88;10449533;28;20281;-52
2023/09/10 03:21:09;;;;;;;7.22;4.40;;;;;;;10.89;75.16;98124.88;10448999;28;20059;-53
2023/09/10 03:26:12;;;;;;;11.50;5.18;;;;;;;10.79;75.37;98107.53;10450129;28;20038;-53
2023/09/10 03:31:11;;;;;;;14.30;5.05;;;;;;;10.88;75.40;98123.16;10456903;28;20078;-53
2023/09/10 03:36:10;;;;;;;9.02;4.65;;;;;;;10.86;75.17;98113.59;10456545;28;20179;-53
2023/09/10 03:41:08;;;;;;;12.65;5.22;;;;;;;10.90;75.50;98125.78;10455510;28;20030;-53
2023/09/10 03:46:07;;;;;;;10.20;5.47;;;;;;;10.92;75.15;98130.09;10456679;28;20139;-52
2023/09/10 03:51:06;;;;;;;10.93;5.97;;;;;;;10.57;75.22;98078.03;10455627;28;20027;-53
2023/09/10 03:56:05;;;;;;;10.90;5.68;;;;;;;10.91;75.23;98143.94;10455454;28;20028;-53
2023/09/10 04:01:04;;;;;;;8.70;5.50;;;;;;;10.95;74.81;98150.03;10455664;28;20439;-53
2023/09/10 04:06:03;;;;;;;10.52;5.72;;;;;;;10.95;75.00;98150.03;10455473;28;20518;-54
2023/09/10 04:11:02;;;;;;;10.25;5.40;;;;;;;10.95;74.89;98153.47;10454552;28;20039;-53
2023/09/10 04:16:01;;;;;;;13.90;5.93;;;;;;;10.91;75.11;98162.09;10454631;28;20052;-53
2023/09/10 04:21:04;;;;;;;9.90;6.07;;;;;;;10.67;74.92;98123.06;10454981;28;20429;-53
2023/09/10 04:26:03;;;;;;;11.90;5.72;;;;;;;10.93;75.04;98163.00;10454357;28;20656;-53
2023/09/10 04:31:02;;;;;;;9.00;5.55;;;;;;;10.96;75.26;98162.13;10454521;28;20604;-53
2023/09/10 04:36:01;;;;;;;10.57;5.95;;;;;;;10.98;75.25;98165.59;10454406;28;20118;-53
2023/09/10 04:41:00;;;;;;;10.93;5.38;;;;;;;11.01;75.74;98171.69;10451369;28;20051;-53
2023/09/10 04:45:59;;;;;;;16.77;5.90;;;;;;;10.99;75.98;98156.97;10451755;28;20545;-53
2023/09/10 04:50:58;;;;;;;17.25;6.22;;;;;;;11.17;75.37;98166.53;10451903;28;20512;-53
2023/09/10 04:55:57;;;;;;;12.07;5.68;;;;;;;11.29;75.35;98166.59;10450747;28;20036;-53
2023/09/10 05:00:56;;;;;;;10.13;6.32;;;;;;;11.47;74.29;98170.94;10450395;28;20020;-53
2023/09/10 05:06:00;;;;;;;12.00;5.80;;;;;;;11.63;74.50;98161.44;10411393;28;20954;-53
2023/09/10 05:10:58;;;;;;;10.90;5.85;;;;;;;10.94;74.01;98027.13;10445967;28;20538;-53
2023/09/10 05:15:57;;;;;;;9.93;5.65;;;;;;;11.82;73.63;98158.00;10453511;28;20514;-53
2023/09/10 05:20:56;;;;;;;7.07;5.60;;;;;;;11.80;73.28;98159.72;10454858;28;20020;-53
2023/09/10 05:25:55;;;;;;;9.35;6.35;;;;;;;11.93;73.33;98164.94;10454996;28;20103;-53
2023/09/10 05:30:54;;;;;;;15.40;6.20;;;;;;;12.06;73.13;98174.47;10454616;28;20063;-53
2023/09/10 05:35:58;;;;;;;11.10;6.03;;;;;;;12.24;72.22;98177.06;10455454;28;20024;-53
2023/09/10 05:41:04;;;;;;;12.30;5.40;;;;;;;12.39;70.27;98170.13;10454750;28;20059;-53
2023/09/10 05:46:03;;;;;;;10.30;5.30;;;;;;;12.50;70.47;98174.44;10454042;28;20471;-54
2023/09/10 05:51:02;;;;;;;10.43;6.03;;;;;;;12.80;69.26;98171.78;10453710;28;20381;-53
2023/09/10 05:56:04;;;;;;;11.25;8.25;;;;;;;13.03;68.86;98163.88;10412151;28;20063;-53
2023/09/10 06:01:03;;;;;;;16.13;11.02;;;;;;;13.26;67.90;98161.19;10448029;28;20064;-54
2023/09/10 06:06:02;;;;;;;10.75;5.35;;;;;;;13.21;67.67;98110.81;10454044;28;20036;-54
2023/09/10 06:11:01;;;;;;;9.55;5.70;;;;;;;13.77;67.07;98167.84;10450317;28;20063;-54
2023/09/10 06:16:00;;;;;;;10.00;4.78;;;;;;;13.97;65.14;98169.44;10448650;28;20068;-54
2023/09/10 06:20:59;;;;;;;10.73;4.78;;;;;;;14.16;65.70;98162.31;10449016;28;20451;-53
2023/09/10 06:26:00;;;;;;;9.05;4.82;;;;;;;14.47;65.08;98167.22;10446497;28;20496;-54
2023/09/10 06:30:59;;;;;;;;;;;;;;;14.62;63.18;98167.09;10447117;28;20089;-54
2023/09/10 06:36:00;;;;;;;12.25;7.53;;;;;;;14.83;61.60;98171.25;10449360;28;20010;-54
2023/09/10 06:40:59;;;;;;;11.27;6.85;;;;;;;15.05;60.79;98171.84;10447959;28;20853;-54
2023/09/10 06:45:58;;;;;;;;;;;;;;;15.32;60.01;98169.75;10449878;28;20536;-54
2023/09/10 06:51:00;;;;;;;10.13;5.07;;;;;;;15.65;58.65;98158.84;10450195;28;19919;-54
2023/09/10 06:55:59;;;;;;;10.93;5.00;;;;;;;15.86;57.74;98167.28;10449248;28;20059;-54
2023/09/10 07:01:04;;;;;;;7.97;4.10;;;;;;;16.12;55.30;98163.38;10452280;28;20055;-54
2023/09/10 07:06:04;;;;;;;6.07;4.10;;;;;;;16.39;54.25;98167.25;10457338;28;20184;-54
2023/09/10 07:11:03;;;;;;;5.95;3.70;;;;;;;16.73;53.82;98167.50;10457725;28;20814;-54
2023/09/10 07:16:02;;;;;;;;;;;;;;;17.07;52.16;98165.09;10457323;28;20036;-54
2023/09/10 07:21:02;;;;;;;6.63;3.90;;;;;;;17.28;51.72;98140.19;10455647;28;19920;-54
2023/09/10 07:26:00;;;;;;;9.85;3.92;;;;;;;17.59;50.12;98155.25;10456675;28;20447;-54
2023/09/10 07:30:59;;;;;;;9.73;4.00;;;;;;;17.75;48.58;98130.38;10456749;28;20643;-54
2023/09/10 07:35:58;;;;;;;;;;;;;;;18.14;47.64;98146.06;10456553;28;20040;-54
2023/09/10 07:40:57;;;;;;;8.97;3.90;;;;;;;18.38;46.12;98135.84;10455843;28;19959;-54
2023/09/10 07:45:56;;;;;;;5.63;3.25;;;;;;;18.70;45.45;98142.88;10453795;28;20042;-54
2023/09/10 07:50:56;;;;;;;5.88;3.65;;;;;;;18.98;45.21;98137.72;10452772;28;20458;-55
2023/09/10 07:55:56;;;;;;;8.27;3.53;;;;;;;19.23;43.87;98126.50;10454667;28;20064;-54
2023/09/10 08:00:56;;;;;;;7.72;4.22;;;;;;;19.53;43.28;98127.28;10453754;28;20819;-54
2023/09/10 08:05:55;;;;;;;4.63;3.42;;;;;;;19.61;43.26;98109.53;10442361;28;20110;-54
2023/09/10 08:10:54;;;;;;;5.05;3.30;;;;;;;20.00;42.05;98118.81;10449691;28;20042;-54
2023/09/10 08:15:53;;;;;;;12.00;3.63;;;;;;;19.66;41.85;97988.28;10452055;28;20040;-54
2023/09/10 08:20:54;;;;;;;5.82;2.67;;;;;;;20.31;38.33;98062.47;10451779;28;20120;-54
2023/09/10 08:25:53;;;;;;;7.63;3.33;;;;;;;20.92;39.15;98105.94;10446379;28;20106;-54
2023/09/10 08:30:53;;;;;;;5.30;3.40;;;;;;;21.38;38.77;98123.59;10452573;28;20046;-54
2023/09/10 08:35:54;;;;;;;7.35;2.95;;;;;;;21.65;38.40;98117.25;10445953;28;20218;-55
2023/09/10 08:40:59;;;;;;;7.32;3.05;;;;;;;22.00;37.76;98109.69;10441766;28;20111;-55
2023/09/10 08:45:58;;;;;;;5.95;3.20;;;;;;;22.09;35.57;98080.25;10449155;28;20127;-54
2023/09/10 08:50:58;;;;;;;6.32;2.92;;;;;;;22.41;36.46;98074.47;10452487;28;20024;-54
2023/09/10 08:55:58;;;;;;;6.95;3.25;;;;;;;22.74;35.73;98102.13;10445031;28;20534;-54
2023/09/10 09:01:00;;;;;;;6.63;2.78;;;;;;;23.10;35.62;98101.38;10452003;28;20058;-54
2023/09/10 09:06:02;;;;;;;7.78;3.38;;;;;;;23.14;34.63;98092.38;10452388;28;20111;-54
2023/09/10 09:11:04;;;;;;;8.73;3.25;;;;;;;23.38;34.60;98084.19;10452361;28;20066;-54
2023/09/10 09:16:04;;;;;;;5.45;3.53;;;;;;;23.48;35.32;98043.13;10450442;28;20158;-55
2023/09/10 09:21:24;;;;;;;5.40;3.58;;;;;;;23.95;34.90;98078.78;10451915;28;20056;-55
2023/09/10 09:26:25;;;;;;;9.80;3.65;;;;;;;24.21;35.50;98075.69;10450242;28;20059;-55
2023/09/10 09:31:25;;;;;;;4.90;3.40;;;;;;;24.33;34.63;98060.09;10452087;28;20062;-55
2023/09/10 09:36:27;;;;;;;6.80;3.50;;;;;;;24.64;34.56;98072.63;10449713;28;20487;-55
2023/09/10 09:41:25;;;;;;;5.85;4.15;;;;;;;24.64;33.81;98068.19;10451741;28;20111;-55
2023/09/10 09:46:31;;;;;;;8.43;4.05;;;;;;;24.64;34.11;98025.72;10446946;28;20107;-55
2023/09/10 09:51:30;;;;;;;8.43;4.32;;;;;;;24.53;33.83;97990.09;10450097;28;20051;-55
2023/09/10 09:56:29;;;;;;;9.48;4.70;;;;;;;24.77;33.06;98009.97;10448763;28;20107;-55
2023/09/10 10:01:28;;;;;;;6.47;4.30;;;;;;;25.14;33.73;98018.59;10451290;28;20111;-55
2023/09/10 10:06:27;;;;;;;7.90;4.50;;;;;;;25.70;33.98;98030.47;10449686;28;20601;-55
2023/09/10 10:11:31;;;;;;;5.35;3.65;;;;;;;25.84;32.01;98029.66;10448607;28;20691;-55
2023/09/10 10:16:31;;;;;;;6.97;4.07;;;;;;;25.94;32.06;98014.03;10450081;28;21533;-55
2023/09/10 10:21:30;;;;;;;10.13;4.57;;;;;;;25.54;32.98;98005.72;10453833;28;20056;-55
2023/09/10 10:26:30;;;;;;;7.53;4.32;;;;;;;25.55;31.55;98007.47;10449511;28;20228;-55
2023/09/10 10:31:34;;;;;;;8.95;4.57;;;;;;;25.43;31.38;98018.75;10453401;28;20556;-55
2023/09/10 10:36:46;;;;;;;7.57;5.00;;;;;;;25.44;31.35;98009.84;10453879;28;20047;-55
2023/09/10 10:41:50;;;;;;;9.63;4.70;;;;;;;25.74;31.72;98008.09;10459928;28;20067;-55
2023/09/10 10:46:58;;;;;;;8.30;4.38;;;;;;;25.92;31.79;98002.63;10459616;28;20573;-55
2023/09/10 10:52:01;;;;;;;6.20;4.10;;;;;;;25.97;31.57;98003.19;10460416;28;20462;-55
2023/09/10 10:57:03;;;;;;;8.15;3.95;;;;;;;26.06;31.85;97996.47;10459561;28;20439;-55
2023/09/10 11:02:28;;;;;;;8.05;4.60;;;;;;;26.02;32.03;97990.50;10460719;28;20066;-55
2023/09/10 11:07:29;;;;;;;10.07;4.97;;;;;;;26.00;32.14;97987.06;10454292;28;20059;-55
2023/09/10 11:12:28;;;;;;;8.57;4.20;;;;;;;25.72;32.01;97945.34;10457557;28;20111;-55
2023/09/10 11:17:32;;;;;;;8.10;4.28;;;;;;;26.12;31.37;97978.34;10448988;28;20131;-55
2023/09/10 11:23:04;;;;;;;9.40;4.60;;;;;;;26.40;31.32;97971.38;10456864;28;20068;-55
2023/09/10 11:28:03;;;;;;;8.52;4.35;;;;;;;26.48;30.81;97971.72;10453678;28;20082;-55
2023/09/10 11:33:27;;;;;;;10.10;5.70;;;;;;;26.62;31.04;97957.56;10455507;28;20103;-55
2023/09/10 11:38:30;;;;;;;8.35;4.35;;;;;;;26.45;30.72;97955.13;10454551;28;20120;-55
2023/09/10 11:43:31;;;;;;;11.55;4.85;;;;;;;26.57;30.42;97955.19;10453449;28;20048;-55
2023/09/10 11:48:30;;;;;;;9.13;4.32;;;;;;;26.44;30.42;97938.31;10453567;28;20055;-55
2023/09/10 11:53:29;;;;;;;10.32;4.18;;;;;;;26.40;30.68;97888.88;10456133;28;20495;-55
2023/09/10 11:58:28;;;;;;;7.88;4.50;;;;;;;26.86;30.21;97949.00;10454441;28;20131;-55
2023/09/10 12:03:27;;;;;;;8.35;4.57;;;;;;;27.13;29.65;97941.88;10455055;28;20092;-55
2023/09/10 12:08:26;;;;;;;8.20;4.65;;;;;;;27.29;29.68;97949.72;10453919;28;20043;-55
2023/09/10 12:13:25;;;;;;;8.18;4.10;;;;;;;27.27;29.65;97943.66;10454755;28;20115;-55
2023/09/10 12:18:25;;;;;;;10.02;4.82;;;;;;;27.36;29.95;97943.03;10453727;28;20131;-55
2023/09/10 12:23:25;;;;;;;7.68;4.70;;;;;;;27.39;30.08;97937.50;10454085;28;20051;-55
2023/09/10 12:28:24;;;;;;;8.38;4.95;;;;;;;27.03;29.41;97892.00;10454127;28;20063;-55
2023/09/10 12:33:24;;;;;;;11.02;4.80;;;;;;;27.29;29.58;97941.75;10453417;28;20082;-55
2023/09/10 12:38:23;;;;;;;11.73;4.53;;;;;;;27.25;29.33;97934.03;10451436;28;20052;-55
2023/09/10 12:43:23;;;;;;;7.15;4.45;;;;;;;27.12;30.05;97933.97;10453704;28;20019;-55
2023/09/10 12:48:22;;;;;;;8.80;4.78;;;;;;;27.32;29.29;97930.88;10450536;28;20743;-55
2023/09/10 12:53:21;;;;;;;8.82;4.10;;;;;;;27.22;30.02;97928.94;10453139;28;20759;-55
2023/09/10 12:58:21;;;;;;;10.15;5.47;;;;;;;27.14;30.23;97926.75;10448165;28;20399;-55
2023/09/10 13:03:20;;;;;;;9.77;4.70;;;;;;;27.06;30.96;97924.59;10443656;28;20557;-55
2023/09/10 13:08:19;;;;;;;6.38;4.45;;;;;;;27.08;30.58;97920.03;10437733;28;20611;-55
2023/09/10 13:13:17;;;;;;;9.60;4.10;;;;;;;27.52;30.36;97910.06;10452953;28;20036;-55
2023/09/10 13:18:16;;;;;;;9.02;4.68;;;;;;;27.42;29.95;97921.31;10451751;28;20083;-55
2023/09/10 13:23:15;;;;;;;7.45;4.05;;;;;;;27.48;29.83;97919.22;10451311;28;20142;-55
2023/09/10 13:28:14;;;;;;;7.65;4.35;;;;;;;27.28;29.79;97918.69;10445409;28;20042;-55
2023/09/10 13:33:13;;;;;;;9.02;4.90;;;;;;;27.09;30.24;97911.06;10454170;28;20028;-55
2023/09/10 13:38:12;;;;;;;9.48;5.13;;;;;;;26.60;31.51;97910.72;10455016;28;20059;-55
2023/09/10 13:43:11;;;;;;;9.38;5.38;;;;;;;26.48;31.83;97915.84;10454136;28;20030;-55
2023/09/10 13:48:10;;;;;;;10.30;4.90;;;;;;;26.58;31.32;97914.34;10454042;28;20020;-55
2023/09/10 13:53:09;;;;;;;9.27;4.82;;;;;;;26.53;31.22;97895.16;10452702;28;20534;-55
2023/09/10 13:58:08;;;;;;;9.70;4.95;;;;;;;26.78;31.19;97901.53;10450221;28;20546;-55
2023/09/10 14:03:07;;;;;;;8.73;4.85;;;;;;;26.67;31.30;97901.38;10448153;28;20823;-55
2023/09/10 14:08:06;;;;;;;7.53;4.63;;;;;;;27.13;31.22;97896.59;10447667;28;20028;-55
2023/09/10 14:13:05;;;;;;;10.10;4.85;;;;;;;27.32;30.77;97892.72;10448254;28;20035;-55
2023/09/10 14:18:04;;;;;;;11.88;4.85;;;;;;;27.16;30.82;97888.38;10446774;28;20080;-55
2023/09/10 14:23:04;;;;;;;9.02;5.20;;;;;;;26.85;30.95;97868.25;10447295;28;20059;-55
2023/09/10 14:28:03;;;;;;;7.25;4.93;;;;;;;26.71;31.48;97884.25;10446784;28;20058;-55
2023/09/10 14:33:02;;;;;;;13.48;5.47;;;;;;;26.71;31.62;97886.91;10437877;28;20106;-55
2023/09/10 14:38:01;;;;;;;7.88;4.75;;;;;;;26.69;31.67;97872.84;10446470;28;20063;-55
2023/09/10 14:43:00;;;;;;;9.15;5.38;;;;;;;26.69;31.06;97880.84;10446116;28;20048;-55
2023/09/10 14:47:59;;;;;;;9.85;5.28;;;;;;;26.67;31.07;97886.25;10444098;28;20046;-55
2023/09/10 14:52:58;;;;;;;9.27;4.40;;;;;;;26.50;30.91;97882.00;10447254;28;20099;-55
2023/09/10 14:57:57;;;;;;;11.38;5.30;;;;;;;26.35;31.21;97888.31;10448703;28;20056;-55
2023/09/10 15:02:56;;;;;;;9.88;4.93;;;;;;;26.17;31.75;97888.47;10447876;28;20024;-55
2023/09/10 15:07:55;;;;;;;9.80;4.82;;;;;;;26.12;31.59;97879.09;10448182;28;20524;-55
2023/09/10 15:12:54;;;;;;;8.55;5.10;;;;;;;25.93;31.65;97879.38;10447909;28;20020;-55
2023/09/10 15:17:53;;;;;;;12.32;7.18;;;;;;;25.84;31.46;97871.97;10444581;28;20036;-55
2023/09/10 15:22:52;;;;;;;12.10;6.03;;;;;;;24.47;31.75;97684.41;10452992;28;20095;-55
2023/09/10 15:27:51;;;;;;;10.98;6.07;;;;;;;25.34;32.18;97844.81;10456893;28;20454;-55
2023/09/10 15:32:50;;;;;;;12.00;6.78;;;;;;;25.43;32.41;97875.28;10455914;28;20667;-55
2023/09/10 15:37:49;;;;;;;9.98;5.32;;;;;;;25.42;32.25;97874.41;10454973;28;20126;-55
2023/09/10 15:42:48;;;;;;;11.77;6.47;;;;;;;25.31;32.18;97883.00;10455880;28;20036;-55
2023/09/10 15:47:47;;;;;;;12.18;7.38;;;;;;;25.11;32.01;97876.22;10455162;28;20376;-55
2023/09/10 15:52:46;;;;;;;13.70;7.82;;;;;;;23.25;32.85;97574.72;10454675;28;20032;-55
2023/09/10 15:57:47;;;;;;;15.32;8.98;;;;;;;24.88;32.97;97879.34;10454936;28;20909;-55
2023/09/10 16:02:46;;;;;;;12.80;8.00;;;;;;;24.66;33.07;97874.34;10454778;28;20059;-55
2023/09/10 16:07:46;;;;;;;13.68;8.05;;;;;;;24.47;33.70;97883.38;10455581;28;20063;-55
2023/09/10 16:12:45;;;;;;;12.82;8.13;;;;;;;24.39;33.80;97874.97;10458267;28;20060;-55
2023/09/10 16:17:44;;;;;;;13.70;8.73;;;;;;;24.34;34.19;97878.81;10456721;28;20048;-55
2023/09/10 16:22:43;;;;;;;13.18;8.77;;;;;;;24.25;34.34;97877.53;10456521;28;20028;-55
2023/09/10 16:27:42;;;;;;;15.32;9.13;;;;;;;24.12;34.83;97884.38;10455771;28;20063;-55
2023/09/10 16:32:41;;;;;;;19.70;8.80;;;;;;;23.90;35.78;97859.03;10452708;28;20514;-55
2023/09/10 16:37:40;;;;;;;17.75;7.90;;;;;;;23.73;36.45;97859.94;10456847;28;20577;-55
2023/09/10 16:42:39;;;;;;;19.80;8.30;;;;;;;23.68;37.20;97879.66;10457006;28;20929;-55
2023/09/10 16:47:38;;;;;;;15.23;8.63;;;;;;;23.19;37.95;97844.13;10456202;28;20761;-55
2023/09/10 16:52:37;;;;;;;15.60;7.97;;;;;;;23.21;38.76;97889.94;10456276;28;20439;-55
2023/09/10 16:57:36;;;;;;;19.27;8.00;;;;;;;22.63;39.10;97841.63;10456405;28;20506;-55
2023/09/10 17:02:35;;;;;;;12.25;7.95;;;;;;;22.64;39.62;97891.78;10455841;28;20468;-55
2023/09/10 17:07:35;;;;;;;14.30;7.32;;;;;;;22.33;39.93;97887.97;10452934;28;20604;-55
2023/09/10 17:12:34;;;;;;;13.55;7.88;;;;;;;22.13;40.83;97901.22;10452259;28;20063;-55
2023/09/10 17:17:39;;;;;;;12.70;7.07;;;;;;;;;;10451440;28;20123;-55
2023/09/10 17:22:38;;;;;;;16.95;8.10;;;;;;;21.59;41.77;97914.13;10452251;28;20048;-55
2023/09/10 17:27:38;;;;;;;17.25;8.82;;;;;;;21.40;42.38;97913.22;10451607;28;20049;-55
2023/09/10 17:32:37;;;;;;;16.45;8.10;;;;;;;21.28;42.93;97930.41;10451731;28;20478;-55
2023/09/10 17:37:36;;;;;;;15.10;8.70;;;;;;;20.86;44.93;97921.50;10450360;28;20547;-54
2023/09/10 17:42:35;;;;;;;15.55;8.75;;;;;;;20.85;45.68;97947.97;10450953;28;20510;-55
2023/09/10 17:47:34;;;;;;;16.17;8.70;;;;;;;20.61;45.90;97948.00;10448841;28;20111;-55
2023/09/10 17:52:34;;;;;;;14.55;8.48;;;;;;;20.38;45.96;97950.63;10450349;28;20506;-55
2023/09/10 17:57:33;;;;;;;14.68;7.10;;;;;;;20.22;46.23;97955.59;10450397;28;20056;-55
2023/09/10 18:02:33;;;;;;;13.55;7.78;;;;;;;20.10;46.75;97958.69;10450493;28;20124;-55
2023/09/10 18:07:32;;;;;;;12.05;7.25;;;;;;;20.00;47.51;97968.66;10448305;28;20063;-54
2023/09/10 18:12:31;;;;;;;15.82;6.82;;;;;;;19.83;47.66;97972.75;10449510;28;20047;-55
2023/09/10 18:17:32;;;;;;;9.82;6.55;;;;;;;19.66;48.17;97983.88;10448496;28;20047;-54
2023/09/10 18:22:31;;;;;;;13.70;6.45;;;;;;;19.21;48.50;97936.25;10450250;28;20059;-55
2023/09/10 18:27:30;;;;;;;10.40;6.57;;;;;;;19.35;48.81;97983.16;10448962;28;20055;-55
2023/09/10 18:32:30;;;;;;;12.70;7.20;;;;;;;19.15;49.30;97981.16;10447804;28;20055;-55
2023/09/10 18:37:29;;;;;;;11.73;6.93;;;;;;;19.09;49.46;97990.13;10447739;28;20064;-54
2023/09/10 18:42:28;;;;;;;13.70;6.70;;;;;;;18.71;49.96;97946.59;10449512;28;20518;-55
2023/09/10 18:47:27;;;;;;;12.23;6.82;;;;;;;18.68;50.48;97971.19;10449185;28;20094;-55
2023/09/10 18:52:26;;;;;;;10.82;6.55;;;;;;;18.72;50.70;97987.75;10449141;28;20360;-55
2023/09/10 18:57:25;;;;;;;10.52;6.70;;;;;;;18.64;50.82;97985.31;10452684;28;20089;-55
2023/09/10 19:02:25;;;;;;;13.18;7.75;;;;;;;18.54;51.26;97989.13;10457782;28;20034;-55
2023/09/10 19:07:24;;;;;;;10.95;6.18;;;;;;;18.41;51.83;97993.88;10457305;28;20055;-55
2023/09/10 19:12:23;;;;;;;11.70;6.03;;;;;;;18.32;52.67;98000.25;10454898;28;20027;-55
2023/09/10 19:17:22;;;;;;;14.52;7.05;;;;;;;18.15;52.69;97992.84;10456129;28;20051;-55
2023/09/10 19:22:21;;;;;;;13.48;6.85;;;;;;;18.09;52.91;98002.66;10456902;28;20060;-55
2023/09/10 19:27:20;;;;;;;11.60;6.72;;;;;;;18.00;53.72;98019.50;10455385;28;20035;-55
2023/09/10 19:32:19;;;;;;;9.57;6.78;;;;;;;17.86;54.08;98021.66;10456328;28;20039;-55
2023/09/10 19:37:21;;;;;;;11.98;6.70;;;;;;;17.73;54.02;98019.31;10454780;28;20433;-55
2023/09/10 19:42:20;;;;;;;13.75;6.90;;;;;;;17.65;54.67;98023.03;10455228;28;20058;-55
2023/09/10 19:47:19;;;;;;;19.45;9.05;;;;;;;17.31;55.35;97988.00;10453111;28;20089;-55
2023/09/10 19:52:18;;;;;;;15.30;7.78;;;;;;;17.44;56.29;98019.16;10455745;28;20016;-55
2023/09/10 19:57:17;;;;;;;;;;;;;;;17.31;56.72;98016.84;10455452;28;20060;-55
2023/09/10 20:02:16;;;;;;;13.10;6.93;;;;;;;16.96;57.36;97975.72;10450720;28;19948;-55
2023/09/10 20:07:15;;;;;;;11.38;6.43;;;;;;;17.08;57.56;98020.00;10452729;28;20055;-55
2023/09/10 20:12:18;;;;;;;10.43;6.85;;;;;;;17.03;58.57;98027.13;10452977;28;20098;-55
2023/09/10 20:17:17;;;;;;;13.73;6.80;;;;;;;17.00;58.55;98031.56;10453197;28;20134;-55
2023/09/10 20:22:17;;;;;;;13.30;6.60;;;;;;;16.93;59.00;98029.09;10453264;28;20054;-55
2023/09/10 20:27:16;;;;;;;10.38;6.47;;;;;;;16.87;59.39;98026.59;10452310;28;20058;-55
2023/09/10 20:32:15;;;;;;;15.20;6.93;;;;;;;16.77;59.96;98035.53;10453681;28;20082;-55
2023/09/10 20:37:14;;;;;;;9.90;6.80;;;;;;;16.60;60.63;98029.75;10452700;28;20020;-55
2023/09/10 20:42:13;;;;;;;;;;;;;;;16.55;60.82;98029.00;10453653;28;20115;-55
2023/09/10 20:47:12;;;;;;;13.20;7.13;;;;;;;16.43;61.26;98032.72;10451483;28;19944;-55
2023/09/10 20:52:11;;;;;;;;;;;;;;;16.33;61.56;98037.28;10452023;28;20040;-55
2023/09/10 20:57:11;;;;;;;13.10;6.93;;;;;;;16.28;61.67;98031.28;10451750;28;20741;-55
2023/09/10 21:02:10;;;;;;;13.13;6.18;;;;;;;16.22;61.91;98034.00;10451751;28;20059;-55
2023/09/10 21:07:09;;;;;;;;;;;;;;;16.17;62.43;98033.25;10451428;28;20123;-55
2023/09/10 21:12:08;;;;;;;14.40;7.65;;;;;;;16.13;62.59;98039.44;10455427;28;19911;-55
2023/09/10 21:17:09;;;;;;;;;;;;;;;16.09;63.45;98031.63;10450442;28;20066;-55
2023/09/10 21:22:08;;;;;;;17.42;8.32;;;;;;;15.75;64.25;97983.38;10454442;28;19959;-55
2023/09/10 21:27:07;;;;;;;13.85;7.78;;;;;;;15.93;66.09;98031.91;10452718;28;20056;-55
2023/09/10 21:32:06;;;;;;;;;;;;;;;15.90;65.63;98026.75;10455121;28;20028;-55
2023/09/10 21:37:05;;;;;;;18.40;8.20;;;;;;;15.82;66.07;98026.91;10454933;28;19920;-55
2023/09/10 21:42:04;;;;;;;14.85;8.00;;;;;;;15.82;66.53;98037.38;10454325;28;20051;-55
2023/09/10 21:47:03;;;;;;;13.43;7.65;;;;;;;15.66;67.33;98037.59;10453635;28;20055;-54
2023/09/10 21:52:02;;;;;;;12.35;7.75;;;;;;;15.56;67.40;98038.63;10453335;28;20063;-55
2023/09/10 21:57:01;;;;;;;15.68;7.97;;;;;;;15.44;67.37;98044.06;10450361;28;20138;-55
2023/09/10 22:02:01;;;;;;;;;;;;;;;15.32;67.62;98049.47;10450532;28;20046;-55
2023/09/10 22:07:02;;;;;;;28.35;12.93;;;;;;;15.09;67.88;98021.94;10451471;28;20584;-55
2023/09/10 22:12:01;;;;;;;50.85;23.30;;;;;;;15.24;67.65;98050.44;10444563;28;20151;-55
2023/09/10 22:16:59;;;;;;;;;;;;;;;15.19;68.56;98043.59;10443529;28;20044;-55
2023/09/10 22:21:58;;;;;;;14.35;8.57;;;;;;;14.99;68.22;98017.72;10444177;28;20394;-54
2023/09/10 22:26:57;;;;;;;;;;;;;;;15.08;68.81;98045.47;10444359;28;20090;-54
2023/09/10 22:31:56;;;;;;;20.70;11.95;;;;;;;15.08;69.76;98053.31;10446306;28;19938;-55
2023/09/10 22:36:55;;;;;;;;;;;;;;;14.88;71.20;98051.00;10447130;28;20154;-54
2023/09/10 22:41:54;;;;;;;14.02;9.30;;;;;;;14.74;70.52;98036.38;10446144;28;19959;-55
2023/09/10 22:46:53;;;;;;;20.25;11.48;;;;;;;14.85;71.07;98054.53;10445759;28;20023;-54
2023/09/10 22:51:52;;;;;;;18.52;12.48;;;;;;;14.64;71.40;98034.72;10449500;28;20040;-55
2023/09/10 22:56:51;;;;;;;;;;;;;;;14.68;71.34;98057.28;10448712;28;20400;-54
2023/09/10 23:01:49;;;;;;;16.33;10.90;;;;;;;14.56;71.43;98042.66;10446731;28;19938;-55
2023/09/10 23:06:49;;;;;;;17.88;12.35;;;;;;;14.53;71.29;98044.44;10446150;28;20036;-54
2023/09/10 23:11:48;;;;;;;16.13;10.57;;;;;;;14.51;71.77;98048.81;10446853;28;20069;-54